Time;durP1;ratioP1;P1;durP2;ratioP2;P2;SDS_P1;SDS_P2;PMS_P1;PMS_P2;Temp;Humidity;BMP_temperature;BMP_pressure;BME280_temperature;BME280_humidity;BME280_pressure;Samples;Min_cycle;Max_cycle;Signal;HPM_P1;HPM_P2
2022/08/16 16:02:45;;;;;;;2.72;2.05;;;33.40;67.30;;;;;;5113835;22;20057;-92
2022/08/16 16:05:12;;;;;;;2.75;2.30;;;33.30;67.40;;;;;;5005558;28;20100;-93
2022/08/16 16:07:39;;;;;;;2.65;2.20;;;33.20;67.50;;;;;;5036395;23;20073;-94
2022/08/16 16:10:08;;;;;;;2.80;2.40;;;33.00;68.00;;;;;;4991705;28;20507;-94
2022/08/16 16:15:57;;;;;;;3.42;2.50;;;32.60;67.80;;;;;;5012398;28;20800;-92
2022/08/16 16:18:24;;;;;;;3.97;2.60;;;32.40;67.90;;;;;;5010288;23;20093;-93
2022/08/16 16:21:01;;;;;;;4.43;2.63;;;32.10;68.00;;;;;;5015597;28;20029;-95
2022/08/16 16:23:31;;;;;;;3.30;2.50;;;32.10;68.90;;;;;;4999533;28;20399;-89
2022/08/16 16:25:58;;;;;;;2.92;2.30;;;31.90;68.20;;;;;;4995689;28;20033;-91
2022/08/16 16:28:26;;;;;;;3.20;2.40;;;31.80;68.30;;;;;;4987581;28;20049;-93
2022/08/16 16:30:53;;;;;;;2.72;2.38;;;31.80;68.50;;;;;;4983484;23;20058;-93
2022/08/16 16:33:26;;;;;;;3.50;2.50;;;31.70;68.40;;;;;;4957864;28;20067;-91
2022/08/16 16:35:55;;;;;;;3.00;2.60;;;31.60;68.60;;;;;;4951520;28;20042;-91
2022/08/16 16:38:21;;;;;;;3.90;2.55;;;31.50;68.90;;;;;;4954199;28;20026;-90
2022/08/16 16:40:47;;;;;;;3.88;2.92;;;31.40;69.10;;;;;;4953961;28;20663;-89
2022/08/16 16:43:14;;;;;;;3.03;2.60;;;31.40;69.20;;;;;;4968206;28;20042;-88
2022/08/16 16:45:42;;;;;;;4.22;2.72;;;31.40;69.40;;;;;;4971958;28;20030;-88
2022/08/16 16:48:08;;;;;;;4.28;3.10;;;31.40;69.50;;;;;;4952283;28;20094;-90
2022/08/16 16:50:38;;;;;;;3.55;2.70;;;31.40;69.70;;;;;;4959075;28;20049;-91
2022/08/16 16:53:05;;;;;;;3.50;2.90;;;31.40;69.80;;;;;;4964900;28;20488;-91
2022/08/16 16:55:33;;;;;;;3.90;2.58;;;31.40;70.40;;;;;;4961590;28;20033;-91
2022/08/16 17:13:59;;;;;;;3.47;2.30;;;31.30;69.20;;;;;;5093217;23;20128;-90
2022/08/16 17:16:25;;;;;;;2.70;2.35;;;31.10;69.30;;;;;;5011311;28;20427;-90
2022/08/16 17:18:52;;;;;;;2.35;1.98;;;31.00;69.30;;;;;;5004952;28;20080;-92
2022/08/16 17:21:19;;;;;;;2.45;1.95;;;30.90;69.20;;;;;;5012487;28;20124;-90
2022/08/16 17:23:46;;;;;;;2.75;2.30;;;30.80;69.40;;;;;;4990909;28;20622;-89
2022/08/16 17:26:15;;;;;;;4.45;2.38;;;30.70;69.50;;;;;;4986299;28;20040;-90
2022/08/16 17:28:44;;;;;;;2.55;2.10;;;30.60;69.60;;;;;;5026449;23;20052;-94
2022/08/16 17:40:16;;;;;;;2.60;2.20;;;30.10;70.10;;;;;;4968559;23;19938;-93
2022/08/16 17:45:21;;;;;;;3.45;2.30;;;30.00;70.40;;;;;;5829506;23;20048;-94
2022/08/16 17:47:48;;;;;;;2.88;2.58;;;29.90;70.30;;;;;;4933869;29;20090;-89
2022/08/16 17:50:15;;;;;;;3.10;2.45;;;29.90;70.40;;;;;;4916888;29;20044;-91
2022/08/16 17:52:40;;;;;;;2.80;2.20;;;29.80;70.40;;;;;;4905336;29;20036;-93
2022/08/16 17:55:11;;;;;;;3.03;2.45;;;29.80;70.50;;;;;;4921235;29;20039;-91
2022/08/16 17:57:37;;;;;;;2.83;2.35;;;29.70;70.50;;;;;;4938579;29;20062;-90
2022/08/16 18:00:27;;;;;;;2.90;2.60;;;29.70;71.30;;;;;;4956918;29;20031;-94
2022/08/16 18:02:56;;;;;;;2.50;2.30;;;29.60;70.90;;;;;;4957126;29;20493;-90
2022/08/16 18:05:24;;;;;;;3.35;2.30;;;29.50;71.10;;;;;;4938527;29;20064;-92
2022/08/16 18:07:50;;;;;;;3.35;2.28;;;29.40;71.20;;;;;;4938977;29;20035;-91
2022/08/16 18:10:23;;;;;;;2.50;2.30;;;29.30;71.20;;;;;;4934948;29;20050;-95
2022/08/16 18:12:55;;;;;;;3.40;2.40;;;29.30;71.20;;;;;;4925989;29;21650;-94
2022/08/16 18:15:22;;;;;;;3.00;2.33;;;29.00;71.50;;;;;;4921990;29;20035;-91
